Flight Track Log - Related Links

Times and Time Zones

All times are in EDT time to prevent confusion due to time zone crossing. See the NGF11Z flight status page for this flight to view local times or setup timezone preferences in your user account.

Time Position Orientation Groundspeed Altitude Reporting Facility
EDT Latitude Longitude Course Direction KTS MPH feet Rate Location/Type
Sun 04:44:00 PM 40.7984 -123.9893 196° South  Level Estimated
Sun 04:45:00 PM 40.7761 -124.0335 236° Southwest  Level FlightAware Approximate
Sun 04:45:07 PM 40.9847 -124.1136 150° Southeast 90 104 600  Level Seattle Center
Sun 04:46:00 PM 40.7538 -124.0776 236° Southwest  Level FlightAware Approximate
Sun 04:46:08 PM 40.9889 -124.1436 280° West 92 106 1,200  Level Seattle Center
Sun 04:47:00 PM 40.7183 -124.0528 150° Southeast  Level Estimated
Sun 04:47:09 PM 40.9711 -124.1836 240° Southwest 101 116 2,200  Level Seattle Center
Sun 04:48:00 PM 40.6875 -124.0868 220° Southwest  Level FlightAware Approximate
Sun 04:48:11 PM 40.9675 -124.2181 262° West 99 114 2,800  Level Seattle Center
Sun 04:49:00 PM 40.6522 -124.0616 180° South  Level Estimated
Sun 04:49:12 PM 40.9342 -124.2256 190° South 112 129 3,500  Level Seattle Center
Sun 04:50:00 PM 40.6169 -124.0365 150° Southeast  Level Estimated
Sun 04:50:13 PM 40.9036 -124.2339 192° South 114 131 4,300  Level Seattle Center
Sun 04:51:14 PM 40.8739 -124.2414 191° South 112 129 4,900 585 Climbing Seattle Center
Sun 04:52:16 PM 40.8428 -124.2453 185° South 111 128 5,500 585 Climbing Seattle Center
Sun 04:53:17 PM 40.8136 -124.2486 185° South 109 125 6,100 541 Climbing Seattle Center
Sun 04:54:18 PM 40.7861 -124.2339 158° South 108 124 6,600 492 Climbing Seattle Center
Sun 04:55:19 PM 40.7611 -124.2086 143° Southeast 110 127 7,100 488 Climbing Seattle Center
Sun 04:56:21 PM 40.7333 -124.1897 153° Southeast 111 128 7,600 537 Climbing Seattle Center
Sun 04:57:22 PM 40.7019 -124.1617 146° Southeast 113 130 8,200 492 Climbing Seattle Center
Sun 04:58:23 PM 40.6728 -124.1436 155° Southeast 113 130 8,600 443 Climbing Seattle Center
Sun 04:59:24 PM 40.6453 -124.1242 152° Southeast 113 130 9,100 443 Climbing Seattle Center
Sun 05:00:25 PM 40.6175 -124.1056 153° Southeast 113 130 9,500 443 Climbing Seattle Center
Sun 05:01:26 PM 40.5906 -124.0858 151° Southeast 113 130 10,000 443 Climbing Seattle Center
Sun 05:02:27 PM 40.5647 -124.0653 149° Southeast 110 127 10,400 390 Climbing Seattle Center
Sun 05:03:29 PM 40.5378 -124.0489 155° Southeast 107 123 10,800 244 Climbing Seattle Center
Sun 05:04:30 PM 40.5100 -124.0275 150° Southeast 111 128 10,900 98 Climbing Seattle Center
Sun 05:05:31 PM 40.4769 -124.0047 152° Southeast 122 140 11,000 49 Climbing Seattle Center
Sun 05:06:32 PM 40.4417 -123.9803 152° Southeast 134 154 11,000 49 Level Seattle Center
Sun 05:07:33 PM 40.4072 -123.9511 147° Southeast 141 162 11,100 49 Climbing Seattle Center
Sun 05:08:34 PM 40.3717 -123.9264 152° Southeast 144 166 11,100  Level Seattle Center
Sun 05:09:35 PM 40.3378 -123.8981 147° Southeast 144 166 11,100 -49 Level Seattle Center
Sun 05:10:36 PM 40.3039 -123.8683 146° Southeast 144 166 11,000 -49 Descending Seattle Center
Sun 05:11:37 PM 40.2603 -123.8347 150° Southeast 148 170 11,000  Level Seattle Center
Sun 05:12:38 PM 40.2239 -123.8086 151° Southeast 149 171 11,000 -49 Level Seattle Center
Sun 05:13:39 PM 40.1853 -123.7894 159° South 149 171 10,900 -49 Descending Seattle Center
Sun 05:14:41 PM 40.1486 -123.7658 154° Southeast 148 170 10,900  Level Seattle Center
Sun 05:15:42 PM 40.1139 -123.7361 147° Southeast 148 170 10,900 49 Level Seattle Center
Sun 05:16:43 PM 40.0781 -123.7108 152° Southeast 147 169 11,000 98 Climbing Seattle Center
Sun 05:17:44 PM 40.0431 -123.6881 154° Southeast 144 166 11,100 49 Climbing Seattle Center
Sun 05:18:45 PM 40.0086 -123.6631 151° Southeast 143 165 11,100 -49 Level Seattle Center
Sun 05:19:46 PM 39.9731 -123.6336 148° Southeast 146 168 11,000 -49 Descending Seattle Center
Sun 05:20:47 PM 39.9364 -123.6081 152° Southeast 148 170 11,000  Level Seattle Center
Sun 05:21:48 PM 39.8992 -123.5847 154° Southeast 148 170 11,000  Level Seattle Center
Sun 05:22:49 PM 39.8642 -123.5589 150° Southeast 147 169 11,000 49 Level Seattle Center
Sun 05:23:50 PM 39.8225 -123.5258 149° Southeast 146 168 11,100 49 Climbing Seattle Center
Sun 05:24:51 PM 39.7864 -123.5050 156° South 144 166 11,100  Level Seattle Center
Sun 05:25:52 PM 39.7503 -123.4800 152° Southeast 145 167 11,100 -49 Level Seattle Center
Sun 05:26:53 PM 39.7153 -123.4528 149° Southeast 146 168 11,000 -82 Descending Seattle Center
Sun 05:28:18 PM 39.6647 -123.4122 148° Southeast 151 174 10,900 -41 Descending Oakland Center
Sun 05:29:20 PM 39.6289 -123.3847 149° Southeast 150 173 10,900 48 Level Oakland Center
Sun 05:30:22 PM 39.5931 -123.3606 153° Southeast 146 168 11,000 48 Climbing Oakland Center
Sun 05:31:24 PM 39.5558 -123.3403 157° South 145 167 11,000  Level Oakland Center
Sun 05:32:25 PM 39.5203 -123.3153 152° Southeast 146 168 11,000 -49 Level Oakland Center
Sun 05:33:27 PM 39.4783 -123.2803 147° Southeast 148 170 10,900  Descending Oakland Center
Sun 05:34:29 PM 39.4431 -123.2506 147° Southeast 150 173 11,000 48 Climbing Oakland Center
Sun 05:35:31 PM 39.4083 -123.2250 150° Southeast 145 167 11,000 48 Level Oakland Center
Sun 05:36:33 PM 39.3717 -123.2061 158° South 142 163 11,100 49 Climbing Oakland Center
Sun 05:37:34 PM 39.3358 -123.1819 152° Southeast 145 167 11,100  Level Oakland Center
Sun 05:38:36 PM 39.3011 -123.1550 149° Southeast 146 168 11,100 -48 Level Oakland Center
Sun 05:39:38 PM 39.2636 -123.1289 152° Southeast 150 173 11,000 -48 Descending Oakland Center
Sun 05:40:40 PM 39.2203 -123.1014 154° Southeast 147 169 11,000 -48 Level Oakland Center
Sun 05:41:42 PM 39.1833 -123.0772 153° Southeast 150 173 10,900  Descending Oakland Center
Sun 05:42:43 PM 39.1469 -123.0519 152° Southeast 148 170 11,000 49 Climbing Oakland Center
Sun 05:43:45 PM 39.1125 -123.0267 150° Southeast 145 167 11,000 48 Level Oakland Center
Sun 05:44:47 PM 39.0778 -123.0011 150° Southeast 144 166 11,100  Climbing Oakland Center
Sun 05:45:48 PM 39.0450 -122.9700 144° Southeast 146 168 11,000 -49 Descending Oakland Center
Sun 05:46:50 PM 39.0097 -122.9439 150° Southeast 145 167 11,000  Level Oakland Center
Sun 05:47:54 PM 38.9661 -122.9153 153° Southeast 146 168 11,000 -48 Level Oakland Center
Sun 05:48:54 PM 38.9272 -122.8944 157° South 149 171 10,900 -50 Descending Oakland Center
Sun 05:49:55 PM 38.8911 -122.8683 151° Southeast 149 171 10,900 49 Level Oakland Center
Sun 05:50:57 PM 38.8583 -122.8408 147° Southeast 145 167 11,000 97 Climbing Oakland Center
Sun 05:51:59 PM 38.8231 -122.8208 156° South 144 166 11,100 49 Climbing Oakland Center
Sun 05:53:00 PM 38.7856 -122.8056 162° South 144 166 11,100  Level Oakland Center
Sun 05:54:02 PM 38.7475 -122.7897 162° South 146 168 11,100 -145 Level Oakland Center
Sun 05:55:04 PM 38.7031 -122.7594 152° Southeast 157 181 10,800 -290 Descending Oakland Center
Sun 05:56:06 PM 38.6619 -122.7353 155° Southeast 166 191 10,500 -341 Descending Oakland Center
Sun 05:57:07 PM 38.6178 -122.7133 159° South 172 198 10,100 -488 Descending Oakland Center
Sun 05:58:09 PM 38.5753 -122.6856 153° Southeast 174 200 9,500 -435 Descending Oakland Center
Sun 05:59:11 PM 38.5303 -122.6622 158° South 176 203 9,200 -195 Descending Oakland Center
Sun 06:00:12 PM 38.4886 -122.6394 157° South 166 191 9,100  Descending Oakland Center
Sun 06:01:14 PM 38.4494 -122.6189 158° South 155 178 9,200 48 Climbing Oakland Center
Sun 06:02:16 PM 38.4036 -122.5931 156° South 155 178 9,200 -244 Level Oakland Center
Sun 06:03:17 PM 38.3628 -122.5686 155° Southeast 163 188 8,700 -488 Descending Oakland Center
Sun 06:04:19 PM 38.3172 -122.5433 156° South 176 203 8,200 -532 Descending Oakland Center
Sun 06:05:21 PM 38.2714 -122.5256 163° South 174 200 7,600 -585 Descending Oakland Center
Sun 06:06:22 PM 38.2236 -122.5078 164° South 177 204 7,000 -634 Descending Oakland Center
Sun 06:07:24 PM 38.1775 -122.4789 154° Southeast 182 209 6,300 -732 Descending Oakland Center
Sun 06:08:25 PM 38.1353 -122.4447 148° Southeast 181 208 5,500 -585 Descending Oakland Center
Sun 06:09:27 PM 38.0908 -122.4200 156° South 175 201 5,100 -194 Descending Oakland Center
Sun 06:10:29 PM 38.0406 -122.3975 161° South 162 186 5,100  Level Oakland Center
Sun 06:11:31 PM 38.0006 -122.3781 159° South 157 181 5,100  Level Oakland Center
Sun 06:12:32 PM 37.9658 -122.3450 143° Southeast 155 178 5,100 293 Level Oakland Center
Sun 06:13:34 PM 37.9358 -122.3117 139° Southeast 150 173 5,700 435 Climbing Oakland Center
Sun 06:14:36 PM 37.9169 -122.2833 130° Southeast 120 138 6,000 195 Climbing Oakland Center
Sun 06:15:37 PM 37.8950 -122.2486 129° Southeast 119 137 6,100 113 Climbing Oakland Center
Sun 06:16:22 PM 37.8667 -122.2167 138° Southeast 150 173 6,200 57 Climbing Northern Cal TRACON
Sun 06:17:22 PM 37.8333 -122.1833 142° Southeast 158 182 6,200 -50 Level Northern Cal TRACON
Sun 06:18:22 PM 37.8000 -122.1333 130° Southeast 159 183 6,100  Descending Northern Cal TRACON
Sun 06:19:22 PM 37.7833 -122.1000 122° Southeast 156 180 6,200  Climbing Northern Cal TRACON
Sun 06:20:22 PM 37.7667 -122.0500 113° Southeast 157 181 6,100 -53 Descending Northern Cal TRACON
Sun 06:21:16 PM 37.7500 -122.0000 113° Southeast 155 178 6,100 50 Level Northern Cal TRACON
Sun 06:22:22 PM 37.7167 -121.9500 130° Southeast 153 176 6,200  Climbing Northern Cal TRACON
Sun 06:23:16 PM 37.7000 -121.9000 113° Southeast 154 177 6,100 -100 Descending Northern Cal TRACON
Sun 06:24:22 PM 37.6667 -121.8667 142° Southeast 152 175 6,000  Descending Northern Cal TRACON
Sun 06:25:53 PM 37.6192 -121.8408 157° South 150 173 6,100 39 Climbing Oakland Center
Sun 06:26:54 PM 37.5836 -121.8122 147° Southeast 151 174 6,100  Level Oakland Center
Sun 06:27:56 PM 37.5403 -121.7819 151° Southeast 149 171 6,100 -341 Level Oakland Center
Sun 06:28:57 PM 37.4947 -121.7897 188° South 164 189 5,400 -537 Descending Oakland Center
Sun 06:29:59 PM 37.4506 -121.8072 197° South 167 192 5,000 -537 Descending Oakland Center
Sun 06:31:00 PM 37.4169 -121.8186 195° South 133 153 4,300 -732 Descending Oakland Center
Sun 06:32:02 PM 37.3861 -121.8064 163° South 125 144 3,500 -774 Descending Oakland Center
Sun 06:33:04 PM 37.3644 -121.7792 135° Southeast 117 135 2,700 -683 Descending Oakland Center
Sun 06:34:05 PM 37.3350 -121.7636 157° South 113 130 2,100 -585 Descending Oakland Center
Sun 06:35:07 PM 37.3058 -121.7803 204° Southwest 126 145 1,500 -585 Descending Oakland Center
Sun 06:36:08 PM 37.3136 -121.8044 292° West 95 109 900 -585 Descending Oakland Center
Sun 06:37:10 PM 37.3289 -121.8183 324° Northwest 79 91 300 -581 Descending Oakland Center

Login

Don't have an account? Register now (free) for customized features, flight alerts, and more!